sensor_id;sensor_type;location;lat;lon;timestamp;temperature;humidity
9446;DHT22;4761;49.490;10.908;2022-12-29T00:01:59;17.10;44.40
9446;DHT22;4761;49.490;10.908;2022-12-29T00:04:24;17.10;44.40
9446;DHT22;4761;49.490;10.908;2022-12-29T00:06:50;17.10;44.40
9446;DHT22;4761;49.490;10.908;2022-12-29T00:09:16;17.10;44.40
9446;DHT22;4761;49.490;10.908;2022-12-29T00:11:41;17.00;44.30
9446;DHT22;4761;49.490;10.908;2022-12-29T00:14:11;17.00;44.30
9446;DHT22;4761;49.490;10.908;2022-12-29T00:16:55;17.00;44.20
9446;DHT22;4761;49.490;10.908;2022-12-29T00:19:21;17.00;44.20
9446;DHT22;4761;49.490;10.908;2022-12-29T00:22:05;17.10;44.30
9446;DHT22;4761;49.490;10.908;2022-12-29T00:24:50;17.00;44.20
9446;DHT22;4761;49.490;10.908;2022-12-29T00:27:31;17.00;44.20
9446;DHT22;4761;49.490;10.908;2022-12-29T00:30:21;17.00;44.30
9446;DHT22;4761;49.490;10.908;2022-12-29T00:33:19;17.00;44.30
9446;DHT22;4761;49.490;10.908;2022-12-29T00:36:11;17.10;44.50
9446;DHT22;4761;49.490;10.908;2022-12-29T00:38:48;17.10;44.50
9446;DHT22;4761;49.490;10.908;2022-12-29T00:41:33;17.10;44.40
9446;DHT22;4761;49.490;10.908;2022-12-29T00:44:25;17.10;44.30
9446;DHT22;4761;49.490;10.908;2022-12-29T00:46:50;17.20;44.20
9446;DHT22;4761;49.490;10.908;2022-12-29T00:49:16;17.20;44.20
9446;DHT22;4761;49.490;10.908;2022-12-29T00:52:02;17.20;44.20
9446;DHT22;4761;49.490;10.908;2022-12-29T00:54:36;17.20;44.10
9446;DHT22;4761;49.490;10.908;2022-12-29T00:57:03;17.20;44.10
9446;DHT22;4761;49.490;10.908;2022-12-29T00:59:29;17.20;44.10
9446;DHT22;4761;49.490;10.908;2022-12-29T01:01:55;17.20;44.20
9446;DHT22;4761;49.490;10.908;2022-12-29T01:04:22;17.20;44.20
9446;DHT22;4761;49.490;10.908;2022-12-29T01:06:48;17.20;44.20
9446;DHT22;4761;49.490;10.908;2022-12-29T01:09:13;17.20;44.20
9446;DHT22;4761;49.490;10.908;2022-12-29T01:11:58;17.20;44.20
9446;DHT22;4761;49.490;10.908;2022-12-29T01:14:24;17.20;44.10
9446;DHT22;4761;49.490;10.908;2022-12-29T01:16:50;17.20;44.10
9446;DHT22;4761;49.490;10.908;2022-12-29T01:19:16;17.20;44.20
9446;DHT22;4761;49.490;10.908;2022-12-29T01:21:42;17.20;44.20
9446;DHT22;4761;49.490;10.908;2022-12-29T01:24:08;17.20;44.30
9446;DHT22;4761;49.490;10.908;2022-12-29T01:26:33;17.20;44.30
9446;DHT22;4761;49.490;10.908;2022-12-29T01:28:59;17.20;44.20
9446;DHT22;4761;49.490;10.908;2022-12-29T01:31:24;17.20;44.30
9446;DHT22;4761;49.490;10.908;2022-12-29T01:33:50;17.20;44.30
9446;DHT22;4761;49.490;10.908;2022-12-29T01:36:16;17.20;44.30
9446;DHT22;4761;49.490;10.908;2022-12-29T01:38:43;17.20;44.20
9446;DHT22;4761;49.490;10.908;2022-12-29T01:41:11;17.20;44.20
9446;DHT22;4761;49.490;10.908;2022-12-29T01:43:51;17.20;44.30
9446;DHT22;4761;49.490;10.908;2022-12-29T01:46:26;17.20;44.30
9446;DHT22;4761;49.490;10.908;2022-12-29T01:49:02;17.20;44.40
9446;DHT22;4761;49.490;10.908;2022-12-29T01:51:32;17.20;44.40
9446;DHT22;4761;49.490;10.908;2022-12-29T01:54:00;17.20;44.40
9446;DHT22;4761;49.490;10.908;2022-12-29T01:56:27;17.20;44.30
9446;DHT22;4761;49.490;10.908;2022-12-29T01:59:07;17.20;44.40
9446;DHT22;4761;49.490;10.908;2022-12-29T02:01:34;17.20;44.40
9446;DHT22;4761;49.490;10.908;2022-12-29T02:04:00;17.20;44.40
9446;DHT22;4761;49.490;10.908;2022-12-29T02:06:33;17.20;44.40
9446;DHT22;4761;49.490;10.908;2022-12-29T02:09:00;17.20;44.40
9446;DHT22;4761;49.490;10.908;2022-12-29T02:11:28;17.20;44.40
9446;DHT22;4761;49.490;10.908;2022-12-29T02:13:53;17.20;44.40
9446;DHT22;4761;49.490;10.908;2022-12-29T02:16:40;17.20;44.40
9446;DHT22;4761;49.490;10.908;2022-12-29T02:22:00;17.20;44.40
9446;DHT22;4761;49.490;10.908;2022-12-29T02:27:44;17.20;44.50
9446;DHT22;4761;49.490;10.908;2022-12-29T02:33:17;17.20;44.40
9446;DHT22;4761;49.490;10.908;2022-12-29T02:38:46;17.20;44.40
9446;DHT22;4761;49.490;10.908;2022-12-29T02:41:32;17.20;44.50
9446;DHT22;4761;49.490;10.908;2022-12-29T02:44:07;17.20;44.50
9446;DHT22;4761;49.490;10.908;2022-12-29T02:46:36;17.20;44.50
9446;DHT22;4761;49.490;10.908;2022-12-29T02:49:11;17.20;44.50
9446;DHT22;4761;49.490;10.908;2022-12-29T02:51:59;17.20;44.50
9446;DHT22;4761;49.490;10.908;2022-12-29T02:54:26;17.20;44.50
9446;DHT22;4761;49.490;10.908;2022-12-29T02:59:55;17.20;44.40
9446;DHT22;4761;49.490;10.908;2022-12-29T03:02:39;17.20;45.10
9446;DHT22;4761;49.490;10.908;2022-12-29T03:05:40;17.20;44.50
9446;DHT22;4761;49.490;10.908;2022-12-29T03:11:12;17.20;44.40
9446;DHT22;4761;49.490;10.908;2022-12-29T03:17:27;17.20;44.50
9446;DHT22;4761;49.490;10.908;2022-12-29T03:20:01;17.20;44.50
9446;DHT22;4761;49.490;10.908;2022-12-29T03:22:30;17.20;44.60
9446;DHT22;4761;49.490;10.908;2022-12-29T03:25:03;17.20;44.60
9446;DHT22;4761;49.490;10.908;2022-12-29T03:27:55;17.20;44.60
9446;DHT22;4761;49.490;10.908;2022-12-29T03:30:21;17.20;44.60
9446;DHT22;4761;49.490;10.908;2022-12-29T03:32:53;17.20;44.70
9446;DHT22;4761;49.490;10.908;2022-12-29T03:35:22;17.20;44.60
9446;DHT22;4761;49.490;10.908;2022-12-29T03:37:57;17.20;44.60
9446;DHT22;4761;49.490;10.908;2022-12-29T03:40:26;17.20;44.60
9446;DHT22;4761;49.490;10.908;2022-12-29T03:42:53;17.20;44.70
9446;DHT22;4761;49.490;10.908;2022-12-29T03:45:19;17.20;44.70
9446;DHT22;4761;49.490;10.908;2022-12-29T03:47:45;17.20;44.70
9446;DHT22;4761;49.490;10.908;2022-12-29T03:50:12;17.20;44.80
9446;DHT22;4761;49.490;10.908;2022-12-29T03:52:38;17.20;44.70
9446;DHT22;4761;49.490;10.908;2022-12-29T03:55:04;17.20;44.80
9446;DHT22;4761;49.490;10.908;2022-12-29T03:57:29;17.20;44.80
9446;DHT22;4761;49.490;10.908;2022-12-29T03:59:55;17.20;45.30
9446;DHT22;4761;49.490;10.908;2022-12-29T04:02:20;17.20;44.80
9446;DHT22;4761;49.490;10.908;2022-12-29T04:04:46;17.20;44.80
9446;DHT22;4761;49.490;10.908;2022-12-29T04:07:11;17.20;44.90
9446;DHT22;4761;49.490;10.908;2022-12-29T04:09:37;17.20;44.90
9446;DHT22;4761;49.490;10.908;2022-12-29T04:12:03;17.20;44.90
9446;DHT22;4761;49.490;10.908;2022-12-29T04:14:28;17.20;44.80
9446;DHT22;4761;49.490;10.908;2022-12-29T04:16:54;17.20;44.80
9446;DHT22;4761;49.490;10.908;2022-12-29T04:19:19;17.20;44.90
9446;DHT22;4761;49.490;10.908;2022-12-29T04:21:45;17.20;44.80
9446;DHT22;4761;49.490;10.908;2022-12-29T04:24:10;17.20;44.90
9446;DHT22;4761;49.490;10.908;2022-12-29T04:26:36;17.20;44.80
9446;DHT22;4761;49.490;10.908;2022-12-29T04:29:02;17.20;44.90
9446;DHT22;4761;49.490;10.908;2022-12-29T04:31:27;17.20;44.90
9446;DHT22;4761;49.490;10.908;2022-12-29T04:33:52;17.20;44.80
9446;DHT22;4761;49.490;10.908;2022-12-29T04:36:18;17.20;44.80
9446;DHT22;4761;49.490;10.908;2022-12-29T04:38:43;17.20;44.80
9446;DHT22;4761;49.490;10.908;2022-12-29T04:41:09;17.20;44.80
9446;DHT22;4761;49.490;10.908;2022-12-29T04:43:34;17.20;44.90
9446;DHT22;4761;49.490;10.908;2022-12-29T04:46:00;17.20;44.90
9446;DHT22;4761;49.490;10.908;2022-12-29T04:48:25;17.20;44.90
9446;DHT22;4761;49.490;10.908;2022-12-29T04:50:51;17.20;44.90
9446;DHT22;4761;49.490;10.908;2022-12-29T04:53:17;17.20;44.80
9446;DHT22;4761;49.490;10.908;2022-12-29T04:55:43;17.20;44.80
9446;DHT22;4761;49.490;10.908;2022-12-29T04:58:08;17.30;44.90
9446;DHT22;4761;49.490;10.908;2022-12-29T05:00:34;17.30;44.70
9446;DHT22;4761;49.490;10.908;2022-12-29T05:03:00;17.30;44.60
9446;DHT22;4761;49.490;10.908;2022-12-29T05:05:25;17.30;44.60
9446;DHT22;4761;49.490;10.908;2022-12-29T05:07:51;17.30;44.60
9446;DHT22;4761;49.490;10.908;2022-12-29T05:10:16;17.30;44.70
9446;DHT22;4761;49.490;10.908;2022-12-29T05:12:42;17.30;44.70
9446;DHT22;4761;49.490;10.908;2022-12-29T05:15:09;17.30;44.70
9446;DHT22;4761;49.490;10.908;2022-12-29T05:17:35;17.30;44.70
9446;DHT22;4761;49.490;10.908;2022-12-29T05:20:01;17.20;44.60
9446;DHT22;4761;49.490;10.908;2022-12-29T05:22:26;17.20;44.50
9446;DHT22;4761;49.490;10.908;2022-12-29T05:24:52;17.20;44.50
9446;DHT22;4761;49.490;10.908;2022-12-29T05:27:17;17.20;44.40
9446;DHT22;4761;49.490;10.908;2022-12-29T05:29:43;17.20;44.40
9446;DHT22;4761;49.490;10.908;2022-12-29T05:32:08;17.20;44.50
9446;DHT22;4761;49.490;10.908;2022-12-29T05:34:34;17.20;44.50
9446;DHT22;4761;49.490;10.908;2022-12-29T05:36:59;17.30;44.60
9446;DHT22;4761;49.490;10.908;2022-12-29T05:39:26;17.20;44.50
9446;DHT22;4761;49.490;10.908;2022-12-29T05:41:51;17.20;44.50
9446;DHT22;4761;49.490;10.908;2022-12-29T05:44:17;17.20;44.40
9446;DHT22;4761;49.490;10.908;2022-12-29T05:46:42;17.20;44.50
9446;DHT22;4761;49.490;10.908;2022-12-29T05:49:08;17.20;44.50
9446;DHT22;4761;49.490;10.908;2022-12-29T05:51:33;17.20;44.50
9446;DHT22;4761;49.490;10.908;2022-12-29T05:53:59;17.20;44.70
9446;DHT22;4761;49.490;10.908;2022-12-29T05:56:24;17.20;44.60
9446;DHT22;4761;49.490;10.908;2022-12-29T05:58:50;17.20;44.60
9446;DHT22;4761;49.490;10.908;2022-12-29T06:01:15;17.20;44.60
9446;DHT22;4761;49.490;10.908;2022-12-29T06:03:41;17.20;44.60
9446;DHT22;4761;49.490;10.908;2022-12-29T06:06:07;17.20;44.60
9446;DHT22;4761;49.490;10.908;2022-12-29T06:08:32;17.20;44.60
9446;DHT22;4761;49.490;10.908;2022-12-29T06:10:58;17.20;44.60
9446;DHT22;4761;49.490;10.908;2022-12-29T06:13:24;17.20;44.60
9446;DHT22;4761;49.490;10.908;2022-12-29T06:15:50;17.20;44.60
9446;DHT22;4761;49.490;10.908;2022-12-29T06:18:15;17.20;44.60
9446;DHT22;4761;49.490;10.908;2022-12-29T06:20:41;17.20;44.60
9446;DHT22;4761;49.490;10.908;2022-12-29T06:23:06;17.20;44.60
9446;DHT22;4761;49.490;10.908;2022-12-29T06:25:32;17.10;44.50
9446;DHT22;4761;49.490;10.908;2022-12-29T06:27:59;17.10;44.50
9446;DHT22;4761;49.490;10.908;2022-12-29T06:30:25;17.10;44.50
9446;DHT22;4761;49.490;10.908;2022-12-29T06:32:51;17.10;44.50
9446;DHT22;4761;49.490;10.908;2022-12-29T06:35:16;17.10;44.50
9446;DHT22;4761;49.490;10.908;2022-12-29T06:37:42;17.10;44.50
9446;DHT22;4761;49.490;10.908;2022-12-29T06:40:09;17.20;44.50
9446;DHT22;4761;49.490;10.908;2022-12-29T06:42:34;17.20;44.50
9446;DHT22;4761;49.490;10.908;2022-12-29T06:45:00;17.10;44.30
9446;DHT22;4761;49.490;10.908;2022-12-29T06:47:26;17.10;44.40
9446;DHT22;4761;49.490;10.908;2022-12-29T06:49:51;17.10;44.40
9446;DHT22;4761;49.490;10.908;2022-12-29T06:52:17;17.10;44.40
9446;DHT22;4761;49.490;10.908;2022-12-29T06:54:42;17.10;44.40
9446;DHT22;4761;49.490;10.908;2022-12-29T06:57:08;17.10;44.30
9446;DHT22;4761;49.490;10.908;2022-12-29T06:59:34;17.20;44.40
9446;DHT22;4761;49.490;10.908;2022-12-29T07:01:59;17.10;44.20
9446;DHT22;4761;49.490;10.908;2022-12-29T07:04:27;17.20;44.30
9446;DHT22;4761;49.490;10.908;2022-12-29T07:06:53;17.10;44.20
9446;DHT22;4761;49.490;10.908;2022-12-29T07:09:18;17.10;41.70
9446;DHT22;4761;49.490;10.908;2022-12-29T07:11:44;16.90;40.90
9446;DHT22;4761;49.490;10.908;2022-12-29T07:14:11;16.90;40.60
9446;DHT22;4761;49.490;10.908;2022-12-29T07:16:36;16.80;40.20
9446;DHT22;4761;49.490;10.908;2022-12-29T07:19:02;16.80;39.80
9446;DHT22;4761;49.490;10.908;2022-12-29T07:21:28;16.90;39.90
9446;DHT22;4761;49.490;10.908;2022-12-29T07:23:54;17.00;39.40
9446;DHT22;4761;49.490;10.908;2022-12-29T07:26:19;17.00;39.00
9446;DHT22;4761;49.490;10.908;2022-12-29T07:28:45;17.10;38.90
9446;DHT22;4761;49.490;10.908;2022-12-29T07:31:17;17.10;38.70
9446;DHT22;4761;49.490;10.908;2022-12-29T07:33:43;17.20;38.60
9446;DHT22;4761;49.490;10.908;2022-12-29T07:36:10;17.20;38.50
9446;DHT22;4761;49.490;10.908;2022-12-29T07:38:36;17.30;38.60
9446;DHT22;4761;49.490;10.908;2022-12-29T07:41:01;17.30;38.50
9446;DHT22;4761;49.490;10.908;2022-12-29T07:43:27;17.40;38.40
9446;DHT22;4761;49.490;10.908;2022-12-29T07:45:53;17.40;38.30
9446;DHT22;4761;49.490;10.908;2022-12-29T07:48:18;17.40;38.60
9446;DHT22;4761;49.490;10.908;2022-12-29T07:50:44;17.50;38.30
9446;DHT22;4761;49.490;10.908;2022-12-29T07:53:10;17.50;38.10
9446;DHT22;4761;49.490;10.908;2022-12-29T07:55:35;17.60;38.10
9446;DHT22;4761;49.490;10.908;2022-12-29T07:58:01;17.50;38.00
9446;DHT22;4761;49.490;10.908;2022-12-29T08:00:26;17.60;38.00
9446;DHT22;4761;49.490;10.908;2022-12-29T08:02:52;17.60;37.90
9446;DHT22;4761;49.490;10.908;2022-12-29T08:05:17;17.60;37.70
9446;DHT22;4761;49.490;10.908;2022-12-29T08:07:44;17.60;37.70
9446;DHT22;4761;49.490;10.908;2022-12-29T08:10:10;17.60;37.50
9446;DHT22;4761;49.490;10.908;2022-12-29T08:12:38;17.70;37.50
9446;DHT22;4761;49.490;10.908;2022-12-29T08:15:04;17.70;38.40
9446;DHT22;4761;49.490;10.908;2022-12-29T08:17:30;17.70;37.90
9446;DHT22;4761;49.490;10.908;2022-12-29T08:19:56;17.70;37.60
9446;DHT22;4761;49.490;10.908;2022-12-29T08:22:21;17.70;37.80
9446;DHT22;4761;49.490;10.908;2022-12-29T08:24:47;17.70;37.80
9446;DHT22;4761;49.490;10.908;2022-12-29T08:27:13;17.70;37.60
9446;DHT22;4761;49.490;10.908;2022-12-29T08:29:38;17.70;38.30
9446;DHT22;4761;49.490;10.908;2022-12-29T08:32:04;17.70;37.40
9446;DHT22;4761;49.490;10.908;2022-12-29T08:34:31;17.70;37.30
9446;DHT22;4761;49.490;10.908;2022-12-29T08:36:57;17.80;37.60
9446;DHT22;4761;49.490;10.908;2022-12-29T08:39:22;17.80;37.50
9446;DHT22;4761;49.490;10.908;2022-12-29T08:41:48;17.80;37.80
9446;DHT22;4761;49.490;10.908;2022-12-29T08:44:13;17.80;37.70
9446;DHT22;4761;49.490;10.908;2022-12-29T08:46:39;17.80;37.90
9446;DHT22;4761;49.490;10.908;2022-12-29T08:49:04;17.80;37.90
9446;DHT22;4761;49.490;10.908;2022-12-29T08:51:30;17.80;37.90
9446;DHT22;4761;49.490;10.908;2022-12-29T08:53:55;17.80;37.90
9446;DHT22;4761;49.490;10.908;2022-12-29T08:56:21;17.80;37.70
9446;DHT22;4761;49.490;10.908;2022-12-29T08:58:49;17.80;37.70
9446;DHT22;4761;49.490;10.908;2022-12-29T09:01:14;17.80;37.90
9446;DHT22;4761;49.490;10.908;2022-12-29T09:03:40;17.90;41.70
9446;DHT22;4761;49.490;10.908;2022-12-29T09:06:06;18.00;42.10
9446;DHT22;4761;49.490;10.908;2022-12-29T09:08:31;17.90;42.10
9446;DHT22;4761;49.490;10.908;2022-12-29T09:11:06;17.80;42.20
9446;DHT22;4761;49.490;10.908;2022-12-29T09:13:32;17.70;42.50
9446;DHT22;4761;49.490;10.908;2022-12-29T09:15:58;17.60;42.60
9446;DHT22;4761;49.490;10.908;2022-12-29T09:18:24;17.60;42.80
9446;DHT22;4761;49.490;10.908;2022-12-29T09:20:58;17.50;42.90
9446;DHT22;4761;49.490;10.908;2022-12-29T09:23:25;17.50;43.10
9446;DHT22;4761;49.490;10.908;2022-12-29T09:25:50;17.50;43.10
9446;DHT22;4761;49.490;10.908;2022-12-29T09:28:16;17.50;43.20
9446;DHT22;4761;49.490;10.908;2022-12-29T09:30:42;17.50;43.20
9446;DHT22;4761;49.490;10.908;2022-12-29T09:33:07;17.50;43.20
9446;DHT22;4761;49.490;10.908;2022-12-29T09:35:33;17.50;43.30
9446;DHT22;4761;49.490;10.908;2022-12-29T09:37:59;17.40;43.30
9446;DHT22;4761;49.490;10.908;2022-12-29T09:40:30;17.40;43.30
9446;DHT22;4761;49.490;10.908;2022-12-29T09:46:33;17.40;43.50
9446;DHT22;4761;49.490;10.908;2022-12-29T09:52:11;17.30;43.50
9446;DHT22;4761;49.490;10.908;2022-12-29T09:55:03;17.40;43.60
9446;DHT22;4761;49.490;10.908;2022-12-29T09:57:53;17.30;43.60
9446;DHT22;4761;49.490;10.908;2022-12-29T10:00:21;17.30;43.60
9446;DHT22;4761;49.490;10.908;2022-12-29T10:03:00;17.30;43.70
9446;DHT22;4761;49.490;10.908;2022-12-29T10:05:38;17.40;43.80
9446;DHT22;4761;49.490;10.908;2022-12-29T10:25:16;17.30;43.80
9446;DHT22;4761;49.490;10.908;2022-12-29T10:27:45;17.30;43.80
9446;DHT22;4761;49.490;10.908;2022-12-29T10:30:12;17.30;43.80
9446;DHT22;4761;49.490;10.908;2022-12-29T10:32:56;17.30;43.80
9446;DHT22;4761;49.490;10.908;2022-12-29T10:35:37;17.30;43.80
9446;DHT22;4761;49.490;10.908;2022-12-29T10:40:48;17.30;43.90
9446;DHT22;4761;49.490;10.908;2022-12-29T10:43:29;17.30;43.90
9446;DHT22;4761;49.490;10.908;2022-12-29T10:46:07;17.30;43.90
9446;DHT22;4761;49.490;10.908;2022-12-29T10:48:34;17.40;44.00
9446;DHT22;4761;49.490;10.908;2022-12-29T10:51:02;17.30;44.00
9446;DHT22;4761;49.490;10.908;2022-12-29T10:53:42;17.30;43.90
9446;DHT22;4761;49.490;10.908;2022-12-29T10:56:38;17.30;43.90
9446;DHT22;4761;49.490;10.908;2022-12-29T10:59:21;17.40;44.00
9446;DHT22;4761;49.490;10.908;2022-12-29T11:07:24;17.40;44.00
9446;DHT22;4761;49.490;10.908;2022-12-29T11:09:51;17.40;44.10
9446;DHT22;4761;49.490;10.908;2022-12-29T11:14:48;17.40;44.10
9446;DHT22;4761;49.490;10.908;2022-12-29T11:17:26;17.40;44.10
9446;DHT22;4761;49.490;10.908;2022-12-29T11:19:51;17.40;44.10
9446;DHT22;4761;49.490;10.908;2022-12-29T11:22:27;17.40;44.10
9446;DHT22;4761;49.490;10.908;2022-12-29T11:24:53;17.40;44.10
9446;DHT22;4761;49.490;10.908;2022-12-29T11:27:22;17.50;44.10
9446;DHT22;4761;49.490;10.908;2022-12-29T11:29:49;17.50;44.20
9446;DHT22;4761;49.490;10.908;2022-12-29T11:32:21;17.40;44.10
9446;DHT22;4761;49.490;10.908;2022-12-29T11:34:47;17.50;44.50
9446;DHT22;4761;49.490;10.908;2022-12-29T11:37:16;17.50;44.20
9446;DHT22;4761;49.490;10.908;2022-12-29T11:39:58;17.50;44.20
9446;DHT22;4761;49.490;10.908;2022-12-29T11:42:41;17.40;44.20
9446;DHT22;4761;49.490;10.908;2022-12-29T11:45:16;17.40;44.30
9446;DHT22;4761;49.490;10.908;2022-12-29T11:47:44;17.40;44.40
9446;DHT22;4761;49.490;10.908;2022-12-29T11:50:17;17.40;44.40
9446;DHT22;4761;49.490;10.908;2022-12-29T11:52:43;17.50;44.40
9446;DHT22;4761;49.490;10.908;2022-12-29T11:55:18;17.50;44.40
9446;DHT22;4761;49.490;10.908;2022-12-29T11:57:45;17.40;44.30
9446;DHT22;4761;49.490;10.908;2022-12-29T12:00:22;17.40;44.40
9446;DHT22;4761;49.490;10.908;2022-12-29T12:03:22;17.50;44.50
9446;DHT22;4761;49.490;10.908;2022-12-29T12:05:54;17.40;44.50
9446;DHT22;4761;49.490;10.908;2022-12-29T12:10:53;17.20;45.40
9446;DHT22;4761;49.490;10.908;2022-12-29T12:13:29;17.20;45.50
9446;DHT22;4761;49.490;10.908;2022-12-29T12:16:18;17.20;45.40
9446;DHT22;4761;49.490;10.908;2022-12-29T12:18:49;17.20;45.00
9446;DHT22;4761;49.490;10.908;2022-12-29T12:24:36;17.30;44.10
9446;DHT22;4761;49.490;10.908;2022-12-29T12:27:33;17.30;43.90
9446;DHT22;4761;49.490;10.908;2022-12-29T12:30:15;17.40;43.70
9446;DHT22;4761;49.490;10.908;2022-12-29T12:32:56;17.40;43.50
9446;DHT22;4761;49.490;10.908;2022-12-29T12:35:45;17.50;43.30
9446;DHT22;4761;49.490;10.908;2022-12-29T12:40:57;17.50;43.20
9446;DHT22;4761;49.490;10.908;2022-12-29T12:43:37;17.60;43.40
9446;DHT22;4761;49.490;10.908;2022-12-29T12:46:13;17.60;43.30
9446;DHT22;4761;49.490;10.908;2022-12-29T13:02:37;17.70;43.60
9446;DHT22;4761;49.490;10.908;2022-12-29T13:10:50;17.90;44.70
9446;DHT22;4761;49.490;10.908;2022-12-29T13:16:30;17.70;45.20
9446;DHT22;4761;49.490;10.908;2022-12-29T13:22:16;17.60;45.50
9446;DHT22;4761;49.490;10.908;2022-12-29T13:25:07;17.60;45.70
9446;DHT22;4761;49.490;10.908;2022-12-29T13:28:03;17.60;45.80
9446;DHT22;4761;49.490;10.908;2022-12-29T13:30:50;17.50;45.90
9446;DHT22;4761;49.490;10.908;2022-12-29T13:33:42;17.50;46.00
9446;DHT22;4761;49.490;10.908;2022-12-29T13:38:43;17.50;46.20
9446;DHT22;4761;49.490;10.908;2022-12-29T13:41:16;17.50;46.20
9446;DHT22;4761;49.490;10.908;2022-12-29T13:43:45;17.50;46.10
9446;DHT22;4761;49.490;10.908;2022-12-29T13:46:18;17.50;46.00
9446;DHT22;4761;49.490;10.908;2022-12-29T13:51:16;17.50;46.20
9446;DHT22;4761;49.490;10.908;2022-12-29T13:56:31;17.60;46.30
9446;DHT22;4761;49.490;10.908;2022-12-29T14:01:48;17.60;46.30
9446;DHT22;4761;49.490;10.908;2022-12-29T14:04:22;17.60;46.30
9446;DHT22;4761;49.490;10.908;2022-12-29T14:07:11;17.60;46.20
9446;DHT22;4761;49.490;10.908;2022-12-29T14:09:51;17.60;46.20
9446;DHT22;4761;49.490;10.908;2022-12-29T14:14:46;17.60;46.30
9446;DHT22;4761;49.490;10.908;2022-12-29T14:17:12;17.60;46.40
9446;DHT22;4761;49.490;10.908;2022-12-29T14:19:42;17.60;46.40
9446;DHT22;4761;49.490;10.908;2022-12-29T14:22:10;17.60;46.50
9446;DHT22;4761;49.490;10.908;2022-12-29T14:24:42;17.60;46.50
9446;DHT22;4761;49.490;10.908;2022-12-29T14:34:46;17.60;46.50
9446;DHT22;4761;49.490;10.908;2022-12-29T14:37:41;17.60;46.50
9446;DHT22;4761;49.490;10.908;2022-12-29T14:40:22;17.60;46.50
9446;DHT22;4761;49.490;10.908;2022-12-29T14:42:50;17.60;46.60
9446;DHT22;4761;49.490;10.908;2022-12-29T14:47:48;17.50;46.50
9446;DHT22;4761;49.490;10.908;2022-12-29T14:50:18;17.60;46.60
9446;DHT22;4761;49.490;10.908;2022-12-29T14:53:01;17.50;46.60
9446;DHT22;4761;49.490;10.908;2022-12-29T14:58:28;17.50;46.70
9446;DHT22;4761;49.490;10.908;2022-12-29T15:00:55;17.50;46.70
9446;DHT22;4761;49.490;10.908;2022-12-29T15:03:32;17.50;46.80
9446;DHT22;4761;49.490;10.908;2022-12-29T15:06:04;17.50;46.80
9446;DHT22;4761;49.490;10.908;2022-12-29T15:08:36;17.50;46.80
9446;DHT22;4761;49.490;10.908;2022-12-29T15:11:20;17.50;46.80
9446;DHT22;4761;49.490;10.908;2022-12-29T15:13:46;17.50;46.80
9446;DHT22;4761;49.490;10.908;2022-12-29T15:16:26;17.50;46.80
9446;DHT22;4761;49.490;10.908;2022-12-29T15:18:54;17.50;46.80
9446;DHT22;4761;49.490;10.908;2022-12-29T15:21:27;17.50;46.90
9446;DHT22;4761;49.490;10.908;2022-12-29T15:23:53;17.50;47.00
9446;DHT22;4761;49.490;10.908;2022-12-29T15:26:19;17.50;46.90
9446;DHT22;4761;49.490;10.908;2022-12-29T15:28:52;17.50;47.00
9446;DHT22;4761;49.490;10.908;2022-12-29T15:31:24;17.50;46.90
9446;DHT22;4761;49.490;10.908;2022-12-29T15:33:53;17.50;46.60
9446;DHT22;4761;49.490;10.908;2022-12-29T15:36:25;17.50;46.60
9446;DHT22;4761;49.490;10.908;2022-12-29T15:38:52;17.50;46.80
9446;DHT22;4761;49.490;10.908;2022-12-29T15:41:24;17.50;46.80
9446;DHT22;4761;49.490;10.908;2022-12-29T15:44:01;17.50;46.80
9446;DHT22;4761;49.490;10.908;2022-12-29T15:46:32;17.50;46.90
9446;DHT22;4761;49.490;10.908;2022-12-29T15:48:58;17.50;46.90
9446;DHT22;4761;49.490;10.908;2022-12-29T15:51:30;17.50;46.90
9446;DHT22;4761;49.490;10.908;2022-12-29T15:53:57;17.50;46.90
9446;DHT22;4761;49.490;10.908;2022-12-29T15:56:23;17.50;46.90
9446;DHT22;4761;49.490;10.908;2022-12-29T15:58:51;17.50;46.90
9446;DHT22;4761;49.490;10.908;2022-12-29T16:01:31;17.50;46.90
9446;DHT22;4761;49.490;10.908;2022-12-29T16:03:59;17.50;46.90
9446;DHT22;4761;49.490;10.908;2022-12-29T16:06:39;17.50;46.90
9446;DHT22;4761;49.490;10.908;2022-12-29T16:09:27;17.50;46.90
9446;DHT22;4761;49.490;10.908;2022-12-29T16:11:55;17.50;46.90
9446;DHT22;4761;49.490;10.908;2022-12-29T16:14:41;17.50;47.00
9446;DHT22;4761;49.490;10.908;2022-12-29T16:17:12;17.50;46.90
9446;DHT22;4761;49.490;10.908;2022-12-29T16:19:40;17.50;47.00
9446;DHT22;4761;49.490;10.908;2022-12-29T16:22:15;17.50;47.00
9446;DHT22;4761;49.490;10.908;2022-12-29T16:24:42;17.50;47.00
9446;DHT22;4761;49.490;10.908;2022-12-29T16:27:21;17.50;47.00
9446;DHT22;4761;49.490;10.908;2022-12-29T16:29:53;17.50;47.00
9446;DHT22;4761;49.490;10.908;2022-12-29T16:32:30;17.50;47.00
9446;DHT22;4761;49.490;10.908;2022-12-29T16:37:44;17.50;47.00
9446;DHT22;4761;49.490;10.908;2022-12-29T16:40:29;17.50;47.00
9446;DHT22;4761;49.490;10.908;2022-12-29T16:43:00;17.50;47.10
9446;DHT22;4761;49.490;10.908;2022-12-29T16:50:41;17.50;47.10
9446;DHT22;4761;49.490;10.908;2022-12-29T16:53:32;17.50;47.10
9446;DHT22;4761;49.490;10.908;2022-12-29T16:56:14;17.50;47.10
9446;DHT22;4761;49.490;10.908;2022-12-29T16:58:40;17.50;47.10
9446;DHT22;4761;49.490;10.908;2022-12-29T17:01:07;17.50;47.10
9446;DHT22;4761;49.490;10.908;2022-12-29T17:03:43;17.50;47.10
9446;DHT22;4761;49.490;10.908;2022-12-29T17:06:17;17.50;47.20
9446;DHT22;4761;49.490;10.908;2022-12-29T17:08:44;17.60;47.30
9446;DHT22;4761;49.490;10.908;2022-12-29T17:11:29;17.50;47.30
9446;DHT22;4761;49.490;10.908;2022-12-29T17:16:45;17.50;47.30
9446;DHT22;4761;49.490;10.908;2022-12-29T17:19:17;17.50;47.40
9446;DHT22;4761;49.490;10.908;2022-12-29T17:21:43;17.50;47.50
9446;DHT22;4761;49.490;10.908;2022-12-29T17:24:16;17.50;47.50
9446;DHT22;4761;49.490;10.908;2022-12-29T17:26:42;17.50;47.70
9446;DHT22;4761;49.490;10.908;2022-12-29T17:29:56;17.50;47.70
9446;DHT22;4761;49.490;10.908;2022-12-29T17:32:04;17.50;47.70
9446;DHT22;4761;49.490;10.908;2022-12-29T17:34:31;17.50;47.70
9446;DHT22;4761;49.490;10.908;2022-12-29T17:36:56;17.50;47.70
9446;DHT22;4761;49.490;10.908;2022-12-29T17:39:22;17.50;47.80
9446;DHT22;4761;49.490;10.908;2022-12-29T17:41:48;17.50;47.70
9446;DHT22;4761;49.490;10.908;2022-12-29T17:44:18;17.50;47.70
9446;DHT22;4761;49.490;10.908;2022-12-29T17:46:45;17.50;47.70
9446;DHT22;4761;49.490;10.908;2022-12-29T17:49:17;17.60;47.80
9446;DHT22;4761;49.490;10.908;2022-12-29T17:51:44;17.60;47.80
9446;DHT22;4761;49.490;10.908;2022-12-29T17:54:19;17.60;47.80
9446;DHT22;4761;49.490;10.908;2022-12-29T17:56:46;17.60;47.80
9446;DHT22;4761;49.490;10.908;2022-12-29T17:59:12;17.60;47.80
9446;DHT22;4761;49.490;10.908;2022-12-29T18:01:42;17.50;47.80
9446;DHT22;4761;49.490;10.908;2022-12-29T18:04:15;17.50;47.90
9446;DHT22;4761;49.490;10.908;2022-12-29T18:06:41;17.50;48.00
9446;DHT22;4761;49.490;10.908;2022-12-29T18:09:07;17.50;48.10
9446;DHT22;4761;49.490;10.908;2022-12-29T18:11:37;17.50;48.10
9446;DHT22;4761;49.490;10.908;2022-12-29T18:14:02;17.50;48.20